sensor_id;sensor_type;location;lat;lon;timestamp;P1;durP1;ratioP1;P2;durP2;ratioP2
22080;SDS011;11207;59.512;18.050;2022-08-19T00:00:16;27.77;;;14.37;;
22080;SDS011;11207;59.512;18.050;2022-08-19T00:02:44;26.17;;;14.60;;
22080;SDS011;11207;59.512;18.050;2022-08-19T00:05:11;25.47;;;14.23;;
22080;SDS011;11207;59.512;18.050;2022-08-19T00:07:38;24.23;;;13.80;;
22080;SDS011;11207;59.512;18.050;2022-08-19T00:10:05;28.67;;;14.53;;
22080;SDS011;11207;59.512;18.050;2022-08-19T00:12:32;28.83;;;16.00;;
22080;SDS011;11207;59.512;18.050;2022-08-19T00:14:58;31.93;;;16.27;;
22080;SDS011;11207;59.512;18.050;2022-08-19T00:17:24;72.73;;;20.23;;
22080;SDS011;11207;59.512;18.050;2022-08-19T00:19:49;27.33;;;15.80;;
22080;SDS011;11207;59.512;18.050;2022-08-19T00:22:15;25.43;;;14.47;;
22080;SDS011;11207;59.512;18.050;2022-08-19T00:24:42;24.23;;;15.00;;
22080;SDS011;11207;59.512;18.050;2022-08-19T00:27:09;30.47;;;17.00;;
22080;SDS011;11207;59.512;18.050;2022-08-19T00:29:34;40.57;;;19.43;;
22080;SDS011;11207;59.512;18.050;2022-08-19T00:32:01;30.73;;;16.03;;
22080;SDS011;11207;59.512;18.050;2022-08-19T00:34:27;26.80;;;14.70;;
22080;SDS011;11207;59.512;18.050;2022-08-19T00:36:55;25.90;;;15.77;;
22080;SDS011;11207;59.512;18.050;2022-08-19T00:39:21;27.30;;;16.03;;
22080;SDS011;11207;59.512;18.050;2022-08-19T00:41:47;29.30;;;18.00;;
22080;SDS011;11207;59.512;18.050;2022-08-19T00:44:16;33.07;;;18.30;;
22080;SDS011;11207;59.512;18.050;2022-08-19T00:46:50;38.80;;;20.33;;
22080;SDS011;11207;59.512;18.050;2022-08-19T00:49:22;33.97;;;18.30;;
22080;SDS011;11207;59.512;18.050;2022-08-19T00:51:50;38.57;;;20.63;;
22080;SDS011;11207;59.512;18.050;2022-08-19T00:54:19;29.43;;;17.77;;
22080;SDS011;11207;59.512;18.050;2022-08-19T00:56:46;44.77;;;21.07;;
22080;SDS011;11207;59.512;18.050;2022-08-19T00:59:13;35.20;;;19.37;;
22080;SDS011;11207;59.512;18.050;2022-08-19T01:01:42;37.20;;;19.23;;
22080;SDS011;11207;59.512;18.050;2022-08-19T01:04:09;34.77;;;19.83;;
22080;SDS011;11207;59.512;18.050;2022-08-19T01:06:38;29.90;;;16.67;;
22080;SDS011;11207;59.512;18.050;2022-08-19T01:09:06;29.70;;;15.73;;
22080;SDS011;11207;59.512;18.050;2022-08-19T01:11:33;32.70;;;19.43;;
22080;SDS011;11207;59.512;18.050;2022-08-19T01:14:01;28.67;;;16.53;;
22080;SDS011;11207;59.512;18.050;2022-08-19T01:16:27;34.93;;;17.97;;
22080;SDS011;11207;59.512;18.050;2022-08-19T01:18:55;30.10;;;16.43;;
22080;SDS011;11207;59.512;18.050;2022-08-19T01:23:55;26.93;;;17.47;;
22080;SDS011;11207;59.512;18.050;2022-08-19T01:26:22;27.87;;;16.87;;
22080;SDS011;11207;59.512;18.050;2022-08-19T01:28:51;30.10;;;17.93;;
22080;SDS011;11207;59.512;18.050;2022-08-19T01:31:20;27.30;;;17.70;;
22080;SDS011;11207;59.512;18.050;2022-08-19T01:33:48;28.30;;;17.30;;
22080;SDS011;11207;59.512;18.050;2022-08-19T01:36:26;25.90;;;16.40;;
22080;SDS011;11207;59.512;18.050;2022-08-19T01:38:55;28.83;;;17.13;;
22080;SDS011;11207;59.512;18.050;2022-08-19T01:41:20;25.67;;;15.97;;
22080;SDS011;11207;59.512;18.050;2022-08-19T01:43:47;25.83;;;16.43;;
22080;SDS011;11207;59.512;18.050;2022-08-19T01:46:14;28.10;;;18.57;;
22080;SDS011;11207;59.512;18.050;2022-08-19T01:48:40;26.53;;;16.50;;
22080;SDS011;11207;59.512;18.050;2022-08-19T01:51:08;22.40;;;16.27;;
22080;SDS011;11207;59.512;18.050;2022-08-19T01:53:35;24.07;;;16.17;;
22080;SDS011;11207;59.512;18.050;2022-08-19T01:56:01;27.50;;;17.97;;
22080;SDS011;11207;59.512;18.050;2022-08-19T01:58:36;24.70;;;16.87;;
22080;SDS011;11207;59.512;18.050;2022-08-19T02:01:06;27.73;;;16.97;;
22080;SDS011;11207;59.512;18.050;2022-08-19T02:03:32;29.07;;;16.43;;
22080;SDS011;11207;59.512;18.050;2022-08-19T02:06:00;25.67;;;15.93;;
22080;SDS011;11207;59.512;18.050;2022-08-19T02:08:27;27.30;;;17.10;;
22080;SDS011;11207;59.512;18.050;2022-08-19T02:10:55;28.10;;;16.40;;
22080;SDS011;11207;59.512;18.050;2022-08-19T02:13:22;22.57;;;14.70;;
22080;SDS011;11207;59.512;18.050;2022-08-19T02:15:48;23.33;;;15.13;;
22080;SDS011;11207;59.512;18.050;2022-08-19T02:18:14;25.37;;;16.00;;
22080;SDS011;11207;59.512;18.050;2022-08-19T02:20:40;26.97;;;17.23;;
22080;SDS011;11207;59.512;18.050;2022-08-19T02:23:08;25.97;;;16.60;;
22080;SDS011;11207;59.512;18.050;2022-08-19T02:25:34;22.23;;;15.03;;
22080;SDS011;11207;59.512;18.050;2022-08-19T02:28:00;23.20;;;16.60;;
22080;SDS011;11207;59.512;18.050;2022-08-19T02:30:25;25.93;;;16.10;;
22080;SDS011;11207;59.512;18.050;2022-08-19T02:32:51;32.10;;;19.03;;
22080;SDS011;11207;59.512;18.050;2022-08-19T02:35:18;26.20;;;16.97;;
22080;SDS011;11207;59.512;18.050;2022-08-19T02:37:44;23.57;;;15.00;;
22080;SDS011;11207;59.512;18.050;2022-08-19T02:40:28;25.33;;;16.77;;
22080;SDS011;11207;59.512;18.050;2022-08-19T02:42:58;22.80;;;16.07;;
22080;SDS011;11207;59.512;18.050;2022-08-19T02:45:25;23.87;;;15.10;;
22080;SDS011;11207;59.512;18.050;2022-08-19T02:47:51;26.00;;;17.07;;
22080;SDS011;11207;59.512;18.050;2022-08-19T02:50:17;29.67;;;19.53;;
22080;SDS011;11207;59.512;18.050;2022-08-19T02:52:43;25.87;;;16.83;;
22080;SDS011;11207;59.512;18.050;2022-08-19T02:55:10;35.63;;;18.60;;
22080;SDS011;11207;59.512;18.050;2022-08-19T02:57:36;26.57;;;17.10;;
22080;SDS011;11207;59.512;18.050;2022-08-19T03:00:03;24.53;;;16.00;;
22080;SDS011;11207;59.512;18.050;2022-08-19T03:02:33;27.30;;;15.67;;
22080;SDS011;11207;59.512;18.050;2022-08-19T03:04:59;26.10;;;16.93;;
22080;SDS011;11207;59.512;18.050;2022-08-19T03:07:24;22.33;;;16.20;;
22080;SDS011;11207;59.512;18.050;2022-08-19T03:09:50;21.60;;;15.73;;
22080;SDS011;11207;59.512;18.050;2022-08-19T03:12:15;25.30;;;17.50;;
22080;SDS011;11207;59.512;18.050;2022-08-19T03:14:41;25.27;;;15.50;;
22080;SDS011;11207;59.512;18.050;2022-08-19T03:17:07;25.07;;;17.73;;
22080;SDS011;11207;59.512;18.050;2022-08-19T03:19:32;25.37;;;16.50;;
22080;SDS011;11207;59.512;18.050;2022-08-19T03:21:58;33.30;;;19.10;;
22080;SDS011;11207;59.512;18.050;2022-08-19T03:24:24;31.53;;;18.73;;
22080;SDS011;11207;59.512;18.050;2022-08-19T03:26:51;23.87;;;15.77;;
22080;SDS011;11207;59.512;18.050;2022-08-19T03:29:21;26.37;;;16.43;;
22080;SDS011;11207;59.512;18.050;2022-08-19T03:31:48;27.27;;;17.13;;
22080;SDS011;11207;59.512;18.050;2022-08-19T03:34:18;26.47;;;16.90;;
22080;SDS011;11207;59.512;18.050;2022-08-19T03:36:46;24.23;;;15.73;;
22080;SDS011;11207;59.512;18.050;2022-08-19T03:39:12;23.30;;;16.20;;
22080;SDS011;11207;59.512;18.050;2022-08-19T03:41:39;24.77;;;16.60;;
22080;SDS011;11207;59.512;18.050;2022-08-19T03:44:06;26.60;;;17.33;;
22080;SDS011;11207;59.512;18.050;2022-08-19T03:46:33;30.90;;;18.20;;
22080;SDS011;11207;59.512;18.050;2022-08-19T03:49:02;27.87;;;18.03;;
22080;SDS011;11207;59.512;18.050;2022-08-19T03:51:33;26.23;;;16.73;;
22080;SDS011;11207;59.512;18.050;2022-08-19T03:54:02;25.77;;;17.47;;
22080;SDS011;11207;59.512;18.050;2022-08-19T03:56:30;30.43;;;17.47;;
22080;SDS011;11207;59.512;18.050;2022-08-19T03:58:58;28.40;;;17.67;;
22080;SDS011;11207;59.512;18.050;2022-08-19T04:01:28;28.07;;;17.17;;
22080;SDS011;11207;59.512;18.050;2022-08-19T04:03:58;27.57;;;17.20;;
22080;SDS011;11207;59.512;18.050;2022-08-19T04:06:29;28.93;;;18.30;;
22080;SDS011;11207;59.512;18.050;2022-08-19T04:08:57;25.00;;;16.37;;
22080;SDS011;11207;59.512;18.050;2022-08-19T04:11:25;30.97;;;19.40;;
22080;SDS011;11207;59.512;18.050;2022-08-19T04:13:53;36.80;;;19.50;;
22080;SDS011;11207;59.512;18.050;2022-08-19T04:16:21;23.67;;;15.77;;
22080;SDS011;11207;59.512;18.050;2022-08-19T04:18:48;24.67;;;16.63;;
22080;SDS011;11207;59.512;18.050;2022-08-19T04:21:15;28.70;;;17.20;;
22080;SDS011;11207;59.512;18.050;2022-08-19T04:23:44;24.30;;;15.57;;
22080;SDS011;11207;59.512;18.050;2022-08-19T04:26:16;25.43;;;15.57;;
22080;SDS011;11207;59.512;18.050;2022-08-19T04:28:44;23.57;;;14.73;;
22080;SDS011;11207;59.512;18.050;2022-08-19T04:31:18;41.77;;;22.30;;
22080;SDS011;11207;59.512;18.050;2022-08-19T04:33:45;25.20;;;16.37;;
22080;SDS011;11207;59.512;18.050;2022-08-19T04:36:16;25.90;;;16.77;;
22080;SDS011;11207;59.512;18.050;2022-08-19T04:38:47;23.03;;;15.07;;
22080;SDS011;11207;59.512;18.050;2022-08-19T04:41:15;27.07;;;16.60;;
22080;SDS011;11207;59.512;18.050;2022-08-19T04:43:59;20.80;;;14.87;;
22080;SDS011;11207;59.512;18.050;2022-08-19T04:46:25;23.20;;;14.33;;
22080;SDS011;11207;59.512;18.050;2022-08-19T04:48:51;20.83;;;14.77;;
22080;SDS011;11207;59.512;18.050;2022-08-19T04:51:18;25.60;;;16.20;;
22080;SDS011;11207;59.512;18.050;2022-08-19T04:53:45;26.33;;;15.87;;
22080;SDS011;11207;59.512;18.050;2022-08-19T04:56:12;22.70;;;15.60;;
22080;SDS011;11207;59.512;18.050;2022-08-19T04:58:40;36.20;;;19.17;;
22080;SDS011;11207;59.512;18.050;2022-08-19T05:01:08;25.53;;;16.87;;
22080;SDS011;11207;59.512;18.050;2022-08-19T05:03:37;23.07;;;15.13;;
22080;SDS011;11207;59.512;18.050;2022-08-19T05:06:08;30.93;;;18.07;;
22080;SDS011;11207;59.512;18.050;2022-08-19T05:08:37;22.17;;;15.23;;
22080;SDS011;11207;59.512;18.050;2022-08-19T05:11:30;21.63;;;15.73;;
22080;SDS011;11207;59.512;18.050;2022-08-19T05:13:55;24.53;;;16.37;;
22080;SDS011;11207;59.512;18.050;2022-08-19T05:16:22;28.70;;;17.77;;
22080;SDS011;11207;59.512;18.050;2022-08-19T05:18:49;30.10;;;18.83;;
22080;SDS011;11207;59.512;18.050;2022-08-19T05:21:34;34.97;;;17.97;;
22080;SDS011;11207;59.512;18.050;2022-08-19T05:24:20;26.30;;;16.40;;
22080;SDS011;11207;59.512;18.050;2022-08-19T05:26:47;31.23;;;17.90;;
22080;SDS011;11207;59.512;18.050;2022-08-19T05:29:14;33.40;;;18.60;;
22080;SDS011;11207;59.512;18.050;2022-08-19T05:31:44;24.27;;;15.83;;
22080;SDS011;11207;59.512;18.050;2022-08-19T05:34:10;25.63;;;17.00;;
22080;SDS011;11207;59.512;18.050;2022-08-19T05:36:37;20.70;;;15.37;;
22080;SDS011;11207;59.512;18.050;2022-08-19T05:39:06;20.80;;;14.13;;
22080;SDS011;11207;59.512;18.050;2022-08-19T05:41:33;22.07;;;14.60;;
22080;SDS011;11207;59.512;18.050;2022-08-19T05:44:03;22.33;;;15.13;;
22080;SDS011;11207;59.512;18.050;2022-08-19T05:46:34;26.67;;;14.33;;
22080;SDS011;11207;59.512;18.050;2022-08-19T05:49:04;20.50;;;15.60;;
22080;SDS011;11207;59.512;18.050;2022-08-19T05:51:31;20.80;;;14.20;;
22080;SDS011;11207;59.512;18.050;2022-08-19T05:53:59;22.60;;;14.87;;
22080;SDS011;11207;59.512;18.050;2022-08-19T05:56:25;24.30;;;16.10;;
22080;SDS011;11207;59.512;18.050;2022-08-19T05:58:51;22.20;;;14.17;;
22080;SDS011;11207;59.512;18.050;2022-08-19T06:01:19;20.60;;;12.90;;
22080;SDS011;11207;59.512;18.050;2022-08-19T06:03:45;15.93;;;12.60;;
22080;SDS011;11207;59.512;18.050;2022-08-19T06:06:13;23.70;;;12.82;;
22080;SDS011;11207;59.512;18.050;2022-08-19T06:08:40;20.67;;;13.73;;
22080;SDS011;11207;59.512;18.050;2022-08-19T06:11:11;19.47;;;13.23;;
22080;SDS011;11207;59.512;18.050;2022-08-19T06:13:39;18.50;;;12.07;;
22080;SDS011;11207;59.512;18.050;2022-08-19T06:16:04;18.03;;;12.13;;
22080;SDS011;11207;59.512;18.050;2022-08-19T06:18:30;19.93;;;13.70;;
22080;SDS011;11207;59.512;18.050;2022-08-19T06:20:57;17.43;;;12.93;;
22080;SDS011;11207;59.512;18.050;2022-08-19T06:23:22;18.00;;;12.80;;
22080;SDS011;11207;59.512;18.050;2022-08-19T06:25:48;16.70;;;11.90;;
22080;SDS011;11207;59.512;18.050;2022-08-19T06:28:13;22.25;;;12.95;;
22080;SDS011;11207;59.512;18.050;2022-08-19T06:30:39;18.13;;;12.83;;
22080;SDS011;11207;59.512;18.050;2022-08-19T06:33:05;20.20;;;13.20;;
22080;SDS011;11207;59.512;18.050;2022-08-19T06:35:30;20.67;;;13.03;;
22080;SDS011;11207;59.512;18.050;2022-08-19T06:37:56;18.20;;;12.73;;
22080;SDS011;11207;59.512;18.050;2022-08-19T06:40:22;17.85;;;11.52;;
22080;SDS011;11207;59.512;18.050;2022-08-19T06:42:47;15.15;;;11.25;;
22080;SDS011;11207;59.512;18.050;2022-08-19T06:45:13;16.25;;;11.20;;
22080;SDS011;11207;59.512;18.050;2022-08-19T06:47:39;16.30;;;11.25;;
22080;SDS011;11207;59.512;18.050;2022-08-19T06:50:13;17.23;;;10.93;;
22080;SDS011;11207;59.512;18.050;2022-08-19T06:52:39;13.95;;;10.65;;
22080;SDS011;11207;59.512;18.050;2022-08-19T06:55:04;15.35;;;9.35;;
22080;SDS011;11207;59.512;18.050;2022-08-19T06:57:31;14.27;;;10.15;;
22080;SDS011;11207;59.512;18.050;2022-08-19T06:59:57;17.87;;;12.15;;
22080;SDS011;11207;59.512;18.050;2022-08-19T07:02:25;16.00;;;11.67;;
22080;SDS011;11207;59.512;18.050;2022-08-19T07:04:51;14.75;;;10.98;;
22080;SDS011;11207;59.512;18.050;2022-08-19T07:07:17;12.65;;;9.75;;
22080;SDS011;11207;59.512;18.050;2022-08-19T07:09:44;16.33;;;10.25;;
22080;SDS011;11207;59.512;18.050;2022-08-19T07:12:10;13.90;;;10.02;;
22080;SDS011;11207;59.512;18.050;2022-08-19T07:14:39;14.85;;;10.98;;
22080;SDS011;11207;59.512;18.050;2022-08-19T07:17:09;17.80;;;10.20;;
22080;SDS011;11207;59.512;18.050;2022-08-19T07:19:36;15.07;;;9.77;;
22080;SDS011;11207;59.512;18.050;2022-08-19T07:22:03;13.13;;;9.60;;
22080;SDS011;11207;59.512;18.050;2022-08-19T07:24:31;13.50;;;10.73;;
22080;SDS011;11207;59.512;18.050;2022-08-19T07:26:58;14.02;;;10.00;;
22080;SDS011;11207;59.512;18.050;2022-08-19T07:29:27;14.45;;;9.45;;
22080;SDS011;11207;59.512;18.050;2022-08-19T07:31:55;14.10;;;10.18;;
22080;SDS011;11207;59.512;18.050;2022-08-19T07:34:22;13.18;;;9.30;;
22080;SDS011;11207;59.512;18.050;2022-08-19T07:36:48;14.18;;;8.27;;
22080;SDS011;11207;59.512;18.050;2022-08-19T07:39:19;10.50;;;7.85;;
22080;SDS011;11207;59.512;18.050;2022-08-19T07:41:47;13.50;;;7.43;;
22080;SDS011;11207;59.512;18.050;2022-08-19T07:44:15;18.85;;;7.55;;
22080;SDS011;11207;59.512;18.050;2022-08-19T07:46:42;10.65;;;7.55;;
22080;SDS011;11207;59.512;18.050;2022-08-19T07:49:10;12.45;;;7.47;;
22080;SDS011;11207;59.512;18.050;2022-08-19T07:51:42;13.10;;;7.22;;
22080;SDS011;11207;59.512;18.050;2022-08-19T07:54:09;15.32;;;8.10;;
22080;SDS011;11207;59.512;18.050;2022-08-19T07:56:36;15.45;;;8.40;;
22080;SDS011;11207;59.512;18.050;2022-08-19T07:59:02;21.83;;;7.90;;
22080;SDS011;11207;59.512;18.050;2022-08-19T08:01:28;15.13;;;7.15;;
22080;SDS011;11207;59.512;18.050;2022-08-19T08:03:55;21.27;;;7.93;;
22080;SDS011;11207;59.512;18.050;2022-08-19T08:06:40;14.05;;;7.18;;
22080;SDS011;11207;59.512;18.050;2022-08-19T08:09:26;14.98;;;7.43;;
22080;SDS011;11207;59.512;18.050;2022-08-19T08:12:04;14.77;;;7.32;;
22080;SDS011;11207;59.512;18.050;2022-08-19T08:14:54;13.45;;;7.03;;
22080;SDS011;11207;59.512;18.050;2022-08-19T08:17:24;15.85;;;7.60;;
22080;SDS011;11207;59.512;18.050;2022-08-19T08:19:51;13.30;;;7.20;;
22080;SDS011;11207;59.512;18.050;2022-08-19T08:22:18;12.68;;;7.30;;
22080;SDS011;11207;59.512;18.050;2022-08-19T08:25:10;15.70;;;7.60;;
22080;SDS011;11207;59.512;18.050;2022-08-19T08:27:42;14.10;;;6.65;;
22080;SDS011;11207;59.512;18.050;2022-08-19T08:30:10;14.15;;;7.57;;
22080;SDS011;11207;59.512;18.050;2022-08-19T08:32:42;11.30;;;7.00;;
22080;SDS011;11207;59.512;18.050;2022-08-19T08:35:10;13.85;;;7.40;;
22080;SDS011;11207;59.512;18.050;2022-08-19T08:37:37;15.15;;;6.97;;
22080;SDS011;11207;59.512;18.050;2022-08-19T08:40:07;15.27;;;6.87;;
22080;SDS011;11207;59.512;18.050;2022-08-19T08:42:43;20.33;;;7.65;;
22080;SDS011;11207;59.512;18.050;2022-08-19T08:45:36;10.45;;;5.95;;
22080;SDS011;11207;59.512;18.050;2022-08-19T08:48:20;15.88;;;6.45;;
22080;SDS011;11207;59.512;18.050;2022-08-19T08:50:49;11.30;;;6.50;;
22080;SDS011;11207;59.512;18.050;2022-08-19T08:53:18;11.20;;;5.90;;
22080;SDS011;11207;59.512;18.050;2022-08-19T08:55:45;10.35;;;6.03;;
22080;SDS011;11207;59.512;18.050;2022-08-19T08:58:26;12.07;;;6.40;;
22080;SDS011;11207;59.512;18.050;2022-08-19T09:00:58;12.13;;;5.75;;
22080;SDS011;11207;59.512;18.050;2022-08-19T09:03:24;12.18;;;5.97;;
22080;SDS011;11207;59.512;18.050;2022-08-19T09:06:02;8.57;;;5.62;;
22080;SDS011;11207;59.512;18.050;2022-08-19T09:14:18;9.70;;;5.53;;
22080;SDS011;11207;59.512;18.050;2022-08-19T09:16:45;14.23;;;5.53;;
22080;SDS011;11207;59.512;18.050;2022-08-19T09:19:11;11.25;;;5.65;;
22080;SDS011;11207;59.512;18.050;2022-08-19T09:21:36;20.95;;;5.85;;
22080;SDS011;11207;59.512;18.050;2022-08-19T09:24:03;11.80;;;5.43;;
22080;SDS011;11207;59.512;18.050;2022-08-19T09:26:30;9.52;;;5.43;;
22080;SDS011;11207;59.512;18.050;2022-08-19T09:28:57;10.75;;;5.10;;
22080;SDS011;11207;59.512;18.050;2022-08-19T09:31:25;10.85;;;5.22;;
22080;SDS011;11207;59.512;18.050;2022-08-19T09:33:52;8.93;;;5.20;;
22080;SDS011;11207;59.512;18.050;2022-08-19T09:36:22;9.05;;;4.62;;
22080;SDS011;11207;59.512;18.050;2022-08-19T09:38:49;13.05;;;4.90;;
22080;SDS011;11207;59.512;18.050;2022-08-19T09:41:17;14.75;;;4.80;;
22080;SDS011;11207;59.512;18.050;2022-08-19T09:43:45;15.60;;;5.45;;
22080;SDS011;11207;59.512;18.050;2022-08-19T09:46:12;6.68;;;4.80;;
22080;SDS011;11207;59.512;18.050;2022-08-19T09:48:39;7.50;;;5.05;;
22080;SDS011;11207;59.512;18.050;2022-08-19T09:51:06;16.25;;;5.65;;
22080;SDS011;11207;59.512;18.050;2022-08-19T09:53:34;10.75;;;4.55;;
22080;SDS011;11207;59.512;18.050;2022-08-19T09:56:01;10.82;;;5.07;;
22080;SDS011;11207;59.512;18.050;2022-08-19T09:58:28;9.68;;;4.95;;
22080;SDS011;11207;59.512;18.050;2022-08-19T10:00:55;10.63;;;4.60;;
22080;SDS011;11207;59.512;18.050;2022-08-19T10:03:25;13.82;;;4.95;;
22080;SDS011;11207;59.512;18.050;2022-08-19T10:05:53;7.43;;;4.60;;
22080;SDS011;11207;59.512;18.050;2022-08-19T10:08:21;9.80;;;4.62;;
22080;SDS011;11207;59.512;18.050;2022-08-19T10:10:51;10.35;;;4.95;;
22080;SDS011;11207;59.512;18.050;2022-08-19T10:13:18;8.85;;;3.92;;
22080;SDS011;11207;59.512;18.050;2022-08-19T10:15:47;10.45;;;4.70;;
22080;SDS011;11207;59.512;18.050;2022-08-19T10:18:15;5.82;;;4.22;;
22080;SDS011;11207;59.512;18.050;2022-08-19T10:20:45;9.90;;;4.28;;
22080;SDS011;11207;59.512;18.050;2022-08-19T10:23:12;7.35;;;4.03;;
22080;SDS011;11207;59.512;18.050;2022-08-19T10:25:38;5.95;;;4.10;;
22080;SDS011;11207;59.512;18.050;2022-08-19T10:28:04;10.98;;;4.93;;
22080;SDS011;11207;59.512;18.050;2022-08-19T10:30:35;10.43;;;4.60;;
22080;SDS011;11207;59.512;18.050;2022-08-19T10:33:01;11.75;;;4.80;;
22080;SDS011;11207;59.512;18.050;2022-08-19T10:35:27;9.25;;;4.12;;
22080;SDS011;11207;59.512;18.050;2022-08-19T10:37:54;13.35;;;4.22;;
22080;SDS011;11207;59.512;18.050;2022-08-19T10:40:24;5.93;;;3.62;;
22080;SDS011;11207;59.512;18.050;2022-08-19T10:42:51;5.10;;;3.97;;
22080;SDS011;11207;59.512;18.050;2022-08-19T10:45:17;8.57;;;4.40;;
22080;SDS011;11207;59.512;18.050;2022-08-19T10:48:00;6.65;;;3.87;;
22080;SDS011;11207;59.512;18.050;2022-08-19T10:50:28;10.82;;;4.68;;
22080;SDS011;11207;59.512;18.050;2022-08-19T10:53:12;6.18;;;3.80;;
22080;SDS011;11207;59.512;18.050;2022-08-19T10:55:38;7.53;;;3.67;;
22080;SDS011;11207;59.512;18.050;2022-08-19T10:58:27;4.15;;;3.45;;
22080;SDS011;11207;59.512;18.050;2022-08-19T11:00:53;7.57;;;3.92;;
22080;SDS011;11207;59.512;18.050;2022-08-19T11:03:21;9.13;;;3.92;;
22080;SDS011;11207;59.512;18.050;2022-08-19T11:06:01;7.03;;;3.95;;
22080;SDS011;11207;59.512;18.050;2022-08-19T11:08:29;11.20;;;3.70;;
22080;SDS011;11207;59.512;18.050;2022-08-19T11:10:57;10.02;;;4.30;;
22080;SDS011;11207;59.512;18.050;2022-08-19T11:13:25;12.07;;;3.70;;
22080;SDS011;11207;59.512;18.050;2022-08-19T11:16:05;8.02;;;4.32;;
22080;SDS011;11207;59.512;18.050;2022-08-19T11:18:33;5.97;;;3.62;;
22080;SDS011;11207;59.512;18.050;2022-08-19T11:21:08;5.65;;;3.72;;
22080;SDS011;11207;59.512;18.050;2022-08-19T11:23:38;8.13;;;3.67;;
22080;SDS011;11207;59.512;18.050;2022-08-19T11:26:04;8.98;;;3.70;;
22080;SDS011;11207;59.512;18.050;2022-08-19T11:28:30;5.72;;;3.87;;
22080;SDS011;11207;59.512;18.050;2022-08-19T11:30:56;9.18;;;4.15;;
22080;SDS011;11207;59.512;18.050;2022-08-19T11:33:22;12.00;;;4.22;;
22080;SDS011;11207;59.512;18.050;2022-08-19T11:35:47;9.70;;;3.85;;
22080;SDS011;11207;59.512;18.050;2022-08-19T11:38:14;10.70;;;4.70;;
22080;SDS011;11207;59.512;18.050;2022-08-19T11:40:40;7.82;;;4.00;;
22080;SDS011;11207;59.512;18.050;2022-08-19T11:43:07;9.07;;;3.83;;
22080;SDS011;11207;59.512;18.050;2022-08-19T11:45:33;7.90;;;4.22;;
22080;SDS011;11207;59.512;18.050;2022-08-19T11:47:59;5.32;;;3.70;;
22080;SDS011;11207;59.512;18.050;2022-08-19T11:50:24;6.57;;;3.92;;
22080;SDS011;11207;59.512;18.050;2022-08-19T11:52:53;11.25;;;4.62;;
22080;SDS011;11207;59.512;18.050;2022-08-19T11:55:20;9.65;;;4.25;;
22080;SDS011;11207;59.512;18.050;2022-08-19T11:57:46;6.03;;;3.90;;
22080;SDS011;11207;59.512;18.050;2022-08-19T12:00:12;12.68;;;4.30;;
22080;SDS011;11207;59.512;18.050;2022-08-19T12:02:38;6.78;;;3.80;;
22080;SDS011;11207;59.512;18.050;2022-08-19T12:05:04;9.52;;;4.15;;
22080;SDS011;11207;59.512;18.050;2022-08-19T12:07:31;11.23;;;4.47;;
22080;SDS011;11207;59.512;18.050;2022-08-19T12:09:58;9.85;;;4.50;;
22080;SDS011;11207;59.512;18.050;2022-08-19T12:12:25;13.13;;;4.60;;
22080;SDS011;11207;59.512;18.050;2022-08-19T12:14:52;8.23;;;4.80;;
22080;SDS011;11207;59.512;18.050;2022-08-19T12:17:25;7.47;;;4.18;;
22080;SDS011;11207;59.512;18.050;2022-08-19T12:19:52;9.00;;;4.07;;
22080;SDS011;11207;59.512;18.050;2022-08-19T12:22:18;8.23;;;4.22;;
22080;SDS011;11207;59.512;18.050;2022-08-19T12:24:45;6.12;;;4.35;;
22080;SDS011;11207;59.512;18.050;2022-08-19T12:27:11;7.60;;;4.18;;
22080;SDS011;11207;59.512;18.050;2022-08-19T12:29:36;10.38;;;3.97;;
22080;SDS011;11207;59.512;18.050;2022-08-19T12:32:02;6.70;;;4.20;;
22080;SDS011;11207;59.512;18.050;2022-08-19T12:34:29;11.02;;;4.12;;
22080;SDS011;11207;59.512;18.050;2022-08-19T12:36:56;9.40;;;4.47;;
22080;SDS011;11207;59.512;18.050;2022-08-19T12:39:23;14.32;;;5.20;;
22080;SDS011;11207;59.512;18.050;2022-08-19T12:41:49;11.90;;;4.80;;
22080;SDS011;11207;59.512;18.050;2022-08-19T12:44:15;21.00;;;4.90;;
22080;SDS011;11207;59.512;18.050;2022-08-19T12:46:41;12.90;;;4.97;;
22080;SDS011;11207;59.512;18.050;2022-08-19T12:49:07;6.37;;;3.78;;
22080;SDS011;11207;59.512;18.050;2022-08-19T12:51:33;15.50;;;4.80;;
22080;SDS011;11207;59.512;18.050;2022-08-19T12:53:58;11.63;;;4.70;;
22080;SDS011;11207;59.512;18.050;2022-08-19T12:56:24;10.55;;;4.70;;
22080;SDS011;11207;59.512;18.050;2022-08-19T12:58:50;13.80;;;5.10;;
22080;SDS011;11207;59.512;18.050;2022-08-19T13:01:16;10.48;;;4.35;;
22080;SDS011;11207;59.512;18.050;2022-08-19T13:03:44;8.30;;;4.03;;
22080;SDS011;11207;59.512;18.050;2022-08-19T13:06:10;7.78;;;4.22;;
22080;SDS011;11207;59.512;18.050;2022-08-19T13:08:36;12.18;;;4.78;;
22080;SDS011;11207;59.512;18.050;2022-08-19T13:11:21;13.98;;;4.85;;
22080;SDS011;11207;59.512;18.050;2022-08-19T13:13:51;10.35;;;4.50;;
22080;SDS011;11207;59.512;18.050;2022-08-19T13:16:20;14.10;;;4.68;;
22080;SDS011;11207;59.512;18.050;2022-08-19T13:18:46;9.18;;;4.70;;
22080;SDS011;11207;59.512;18.050;2022-08-19T13:21:13;8.38;;;4.70;;
22080;SDS011;11207;59.512;18.050;2022-08-19T13:23:39;9.60;;;4.75;;
22080;SDS011;11207;59.512;18.050;2022-08-19T13:26:06;13.23;;;4.78;;
22080;SDS011;11207;59.512;18.050;2022-08-19T13:28:33;12.27;;;4.57;;
22080;SDS011;11207;59.512;18.050;2022-08-19T13:31:18;13.52;;;5.20;;
22080;SDS011;11207;59.512;18.050;2022-08-19T13:34:05;15.57;;;5.50;;
22080;SDS011;11207;59.512;18.050;2022-08-19T13:36:32;9.00;;;4.90;;
22080;SDS011;11207;59.512;18.050;2022-08-19T13:38:58;6.28;;;4.43;;
22080;SDS011;11207;59.512;18.050;2022-08-19T13:41:24;10.98;;;5.03;;
22080;SDS011;11207;59.512;18.050;2022-08-19T13:43:50;20.00;;;5.70;;
22080;SDS011;11207;59.512;18.050;2022-08-19T13:46:16;8.15;;;4.68;;
22080;SDS011;11207;59.512;18.050;2022-08-19T13:48:42;7.93;;;4.72;;
22080;SDS011;11207;59.512;18.050;2022-08-19T13:51:08;11.38;;;5.43;;
22080;SDS011;11207;59.512;18.050;2022-08-19T13:53:38;10.93;;;5.10;;
22080;SDS011;11207;59.512;18.050;2022-08-19T13:56:08;11.50;;;4.45;;
22080;SDS011;11207;59.512;18.050;2022-08-19T13:58:35;9.65;;;4.80;;
22080;SDS011;11207;59.512;18.050;2022-08-19T14:01:02;15.63;;;5.47;;
22080;SDS011;11207;59.512;18.050;2022-08-19T14:03:28;8.25;;;4.53;;
22080;SDS011;11207;59.512;18.050;2022-08-19T14:05:55;14.30;;;4.60;;
22080;SDS011;11207;59.512;18.050;2022-08-19T14:08:21;10.05;;;5.10;;
22080;SDS011;11207;59.512;18.050;2022-08-19T14:10:47;8.80;;;4.60;;
22080;SDS011;11207;59.512;18.050;2022-08-19T14:13:18;8.27;;;4.90;;
22080;SDS011;11207;59.512;18.050;2022-08-19T14:15:45;12.63;;;4.93;;
22080;SDS011;11207;59.512;18.050;2022-08-19T14:18:12;13.35;;;4.87;;
22080;SDS011;11207;59.512;18.050;2022-08-19T14:20:39;10.35;;;5.25;;
22080;SDS011;11207;59.512;18.050;2022-08-19T14:23:05;10.98;;;4.50;;
22080;SDS011;11207;59.512;18.050;2022-08-19T14:25:31;10.27;;;5.22;;
22080;SDS011;11207;59.512;18.050;2022-08-19T14:27:57;6.78;;;4.07;;
22080;SDS011;11207;59.512;18.050;2022-08-19T14:30:27;8.82;;;4.28;;
22080;SDS011;11207;59.512;18.050;2022-08-19T14:32:55;11.90;;;4.35;;